createdAt,value
2023-04-02T00:02:22.883Z,2.20
2023-04-02T00:13:00.347Z,1.80
2023-04-02T00:23:24.434Z,2.40
2023-04-02T00:28:26.980Z,2.40
2023-04-02T00:33:31.603Z,2.50
2023-04-02T00:38:35.098Z,2.40
2023-04-02T00:43:39.154Z,2.50
2023-04-02T00:48:50.469Z,2.80
2023-04-02T00:53:56.593Z,2.90
2023-04-02T00:58:59.440Z,3.00
2023-04-02T01:04:05.591Z,3.10
2023-04-02T01:14:54.614Z,3.00
2023-04-02T01:20:22.595Z,3.10
2023-04-02T01:25:35.524Z,3.30
2023-04-02T01:30:38.654Z,3.20
2023-04-02T01:35:44.518Z,2.80
2023-04-02T01:41:02.138Z,3.40
2023-04-02T01:46:23.368Z,2.80
2023-04-02T01:51:29.159Z,3.40
2023-04-02T01:56:32.073Z,3.30
2023-04-02T02:01:48.407Z,2.70
2023-04-02T02:06:51.361Z,4.00
2023-04-02T02:11:53.952Z,3.30
2023-04-02T02:17:02.213Z,2.70
2023-04-02T02:22:29.324Z,3.00
2023-04-02T02:27:55.499Z,3.90
2023-04-02T02:33:10.898Z,3.60
2023-04-02T02:38:30.434Z,4.00
2023-04-02T02:43:35.023Z,3.90
2023-04-02T02:48:39.481Z,2.80
2023-04-02T02:53:48.924Z,3.50
2023-04-02T02:58:53.808Z,3.60
2023-04-02T03:03:56.640Z,3.70
2023-04-02T03:09:36.407Z,3.40
2023-04-02T03:14:46.339Z,3.50
2023-04-02T03:20:22.147Z,3.20
2023-04-02T03:25:52.287Z,3.70
2023-04-02T03:30:59.959Z,3.20
2023-04-02T03:36:18.845Z,3.00
2023-04-02T03:41:29.518Z,2.90
2023-04-02T03:46:40.785Z,2.80
2023-04-02T03:52:02.703Z,2.60
2023-04-02T03:57:18.552Z,2.20
2023-04-02T04:02:52.511Z,2.90
2023-04-02T04:08:01.339Z,3.30
2023-04-02T04:13:12.867Z,2.00
2023-04-02T04:18:49.588Z,3.00
2023-04-02T04:23:52.205Z,3.30
2023-04-02T04:29:28.621Z,3.50
2023-04-02T04:34:42.301Z,3.90
2023-04-02T04:39:50.929Z,3.70
2023-04-02T04:45:03.657Z,3.00
2023-04-02T04:50:19.318Z,2.80
2023-04-02T04:55:38.558Z,3.20
2023-04-02T05:01:09.628Z,3.10
2023-04-02T05:06:38.241Z,3.20
2023-04-02T05:11:47.182Z,3.40
2023-04-02T05:16:58.846Z,3.10
2023-04-02T05:22:28.107Z,3.90
2023-04-02T05:27:41.713Z,3.30
2023-04-02T05:32:49.753Z,3.00
2023-04-02T05:37:52.447Z,2.10
2023-04-02T05:42:56.787Z,2.60
2023-04-02T05:48:03.436Z,2.50
2023-04-02T05:53:34.270Z,2.80
2023-04-02T05:59:07.602Z,2.40
2023-04-02T06:04:32.768Z,3.20
2023-04-02T06:09:53.555Z,1.80
2023-04-02T06:14:56.476Z,2.60
2023-04-02T06:20:01.418Z,2.80
2023-04-02T06:25:19.438Z,2.50
2023-04-02T06:30:34.935Z,2.90
2023-04-02T06:35:40.271Z,2.90
2023-04-02T06:40:53.175Z,1.90
2023-04-02T06:45:57.940Z,2.60
2023-04-02T06:51:08.364Z,3.20
2023-04-02T06:56:47.356Z,1.80
2023-04-02T07:02:03.671Z,2.20
2023-04-02T07:07:06.155Z,2.30
2023-04-02T07:12:13.028Z,2.40
2023-04-02T07:17:20.254Z,2.60
2023-04-02T07:22:22.888Z,2.00
2023-04-02T07:27:26.124Z,2.30
2023-04-02T07:32:28.803Z,2.60
2023-04-02T07:37:31.842Z,2.60
2023-04-02T07:42:34.690Z,2.60
2023-04-02T07:47:37.330Z,2.50
2023-04-02T07:52:44.039Z,2.70
2023-04-02T07:57:55.673Z,3.30
2023-04-02T08:02:58.296Z,3.50
2023-04-02T08:08:01.497Z,3.20
2023-04-02T08:13:04.052Z,3.30
2023-04-02T08:18:06.725Z,3.00
2023-04-02T08:23:17.859Z,2.80
2023-04-02T08:28:21.391Z,3.20
2023-04-02T08:33:24.096Z,3.20
2023-04-02T08:38:26.776Z,3.20
2023-04-02T08:43:58.726Z,3.30
2023-04-02T08:49:08.764Z,3.00
2023-04-02T08:54:31.454Z,3.00
2023-04-02T08:59:41.743Z,3.20
2023-04-02T09:04:44.814Z,2.70
2023-04-02T09:09:49.854Z,2.70
2023-04-02T09:15:06.174Z,2.30
2023-04-02T09:20:26.125Z,2.90
2023-04-02T09:25:32.116Z,3.50
2023-04-02T09:30:59.431Z,3.50
2023-04-02T09:36:02.026Z,3.40
2023-04-02T09:41:06.877Z,2.90
2023-04-02T09:46:17.709Z,2.70
2023-04-02T09:51:36.472Z,3.40
2023-04-02T09:56:40.675Z,3.60
2023-04-02T10:01:55.759Z,3.20
2023-04-02T10:06:58.968Z,2.40
2023-04-02T10:12:04.275Z,2.80
2023-04-02T10:17:19.203Z,2.80
2023-04-02T10:22:22.994Z,2.80
2023-04-02T10:27:48.190Z,2.90
2023-04-02T10:32:56.914Z,2.60
2023-04-02T10:38:16.030Z,1.50
2023-04-02T10:43:46.800Z,2.30
2023-04-02T10:48:57.208Z,1.90
2023-04-02T10:54:21.872Z,1.90
2023-04-02T10:59:29.967Z,2.20
2023-04-02T11:04:44.174Z,1.90
2023-04-02T11:09:50.746Z,2.30
2023-04-02T11:14:55.351Z,2.70
2023-04-02T11:20:36.538Z,2.60
2023-04-02T11:25:41.128Z,2.40
2023-04-02T11:30:48.374Z,2.20
2023-04-02T11:35:51.278Z,2.30
2023-04-02T11:40:56.264Z,2.30
2023-04-02T11:46:01.748Z,1.90
2023-04-02T11:51:22.779Z,1.90
2023-04-02T11:56:48.137Z,2.10
2023-04-02T12:02:06.663Z,2.50
2023-04-02T12:07:39.192Z,1.90
2023-04-02T12:12:43.016Z,1.70
2023-04-02T12:17:45.751Z,1.70
2023-04-02T12:22:52.202Z,2.00
2023-04-02T12:28:07.578Z,1.70
2023-04-02T12:33:28.158Z,1.70
2023-04-02T12:38:34.489Z,1.60
2023-04-02T12:43:37.983Z,2.00
2023-04-02T12:48:40.589Z,1.70
2023-04-02T12:53:50.360Z,1.30
2023-04-02T12:58:55.543Z,1.70
2023-04-02T13:04:12.537Z,1.90
2023-04-02T13:09:29.985Z,1.40
2023-04-02T13:14:32.739Z,1.60
2023-04-02T13:19:35.679Z,1.20
2023-04-02T13:24:38.218Z,1.90
2023-04-02T13:29:41.373Z,1.70
2023-04-02T13:34:43.887Z,1.90
2023-04-02T13:39:46.588Z,1.90
2023-04-02T13:44:49.137Z,1.50
2023-04-02T13:49:51.633Z,1.40
2023-04-02T13:54:59.884Z,2.00
2023-04-02T14:00:04.829Z,2.20
2023-04-02T14:05:28.281Z,1.70
2023-04-02T14:11:01.654Z,1.70
2023-04-02T14:16:20.740Z,1.80
2023-04-02T14:21:32.650Z,1.10
2023-04-02T14:26:56.544Z,1.50
2023-04-02T14:32:11.470Z,1.50
2023-04-02T14:37:27.371Z,1.40
2023-04-02T14:42:33.411Z,1.70
2023-04-02T14:52:47.432Z,1.50
2023-04-02T14:57:53.606Z,1.30
2023-04-02T15:02:59.138Z,1.40
2023-04-02T15:08:06.235Z,1.80
2023-04-02T15:13:19.755Z,1.90
2023-04-02T15:18:23.370Z,1.60
2023-04-02T15:23:56.078Z,1.40
2023-04-02T15:29:07.565Z,1.30
2023-04-02T15:34:27.278Z,2.00
2023-04-02T15:39:58.507Z,2.00
2023-04-02T15:45:07.149Z,1.40
2023-04-02T15:50:52.011Z,1.10
2023-04-02T15:56:06.550Z,1.60
2023-04-02T16:01:28.263Z,2.10
2023-04-02T16:06:41.722Z,1.80
2023-04-02T16:11:44.301Z,1.70
2023-04-02T16:16:50.449Z,1.10
2023-04-02T16:22:20.300Z,2.10
2023-04-02T16:27:36.041Z,1.70
2023-04-02T16:32:44.435Z,2.10
2023-04-02T16:38:09.022Z,1.50
2023-04-02T16:43:33.919Z,1.40
2023-04-02T16:49:14.257Z,1.30
2023-04-02T16:54:56.865Z,1.60
2023-04-02T17:00:27.754Z,1.30
2023-04-02T17:05:32.607Z,1.10
2023-04-02T17:10:50.511Z,1.10
2023-04-02T17:16:06.460Z,1.90
2023-04-02T17:21:14.623Z,1.20
2023-04-02T17:26:19.397Z,1.10
2023-04-02T17:31:23.805Z,1.40
2023-04-02T17:36:29.821Z,1.60
2023-04-02T17:41:54.965Z,1.40
2023-04-02T17:47:15.824Z,1.60
2023-04-02T17:52:29.794Z,1.50
2023-04-02T17:57:40.026Z,1.20
2023-04-02T18:02:51.616Z,1.20
2023-04-02T18:08:22.409Z,1.60
2023-04-02T18:13:40.165Z,1.30
2023-04-02T18:19:03.367Z,1.30
2023-04-02T18:24:20.500Z,1.40
2023-04-02T18:29:59.214Z,1.00
2023-04-02T18:35:26.954Z,1.40
2023-04-02T18:40:49.677Z,1.20
2023-04-02T18:45:56.890Z,1.40
2023-04-02T18:51:01.991Z,1.50
2023-04-02T18:56:12.078Z,1.40
2023-04-02T19:01:47.036Z,1.40
2023-04-02T19:06:56.941Z,1.40
2023-04-02T19:12:00.434Z,1.70
2023-04-02T19:17:29.186Z,1.80
2023-04-02T19:23:13.610Z,1.30
2023-04-02T19:28:30.443Z,1.50
2023-04-02T19:39:15.365Z,1.50
2023-04-02T19:44:18.735Z,1.50
2023-04-02T19:49:32.673Z,1.70
2023-04-02T19:54:36.454Z,2.00
2023-04-02T19:59:41.099Z,1.30
2023-04-02T20:04:43.635Z,1.50
2023-04-02T20:09:46.122Z,1.50
2023-04-02T20:14:48.729Z,1.40
2023-04-02T20:19:51.401Z,1.50
2023-04-02T20:24:54.851Z,1.40
2023-04-02T20:29:57.335Z,1.40
2023-04-02T20:34:59.825Z,1.30
2023-04-02T20:40:02.376Z,1.20
2023-04-02T20:45:06.172Z,1.70
2023-04-02T20:50:09.314Z,1.20
2023-04-02T20:55:11.948Z,1.70
2023-04-02T21:00:14.847Z,1.70
2023-04-02T21:05:17.374Z,1.10
2023-04-02T21:10:19.903Z,2.10
2023-04-02T21:15:22.445Z,1.70
2023-04-02T21:20:26.540Z,1.40
2023-04-02T21:25:29.209Z,1.90
2023-04-02T21:30:33.106Z,1.80
2023-04-02T21:35:35.864Z,1.50
2023-04-02T21:40:38.602Z,2.10
2023-04-02T21:45:41.102Z,1.10
2023-04-02T21:50:43.603Z,1.50
2023-04-02T21:55:46.121Z,1.80
2023-04-02T22:00:48.677Z,1.40
2023-04-02T22:06:10.790Z,1.80
2023-04-02T22:11:15.674Z,1.70
2023-04-02T22:16:23.643Z,1.40
2023-04-02T22:21:27.202Z,1.40
2023-04-02T22:26:31.239Z,1.60
2023-04-02T22:31:34.928Z,1.90
2023-04-02T22:36:37.811Z,1.70
2023-04-02T22:41:40.397Z,1.40
2023-04-02T22:46:43.157Z,1.80
2023-04-02T22:51:45.903Z,1.60
2023-04-02T22:56:48.578Z,1.60
2023-04-02T23:01:51.237Z,1.50
2023-04-02T23:06:53.829Z,1.40
2023-04-02T23:11:56.390Z,0.80
2023-04-02T23:16:58.922Z,1.60
2023-04-02T23:22:01.425Z,1.30
2023-04-02T23:27:04.020Z,1.80
2023-04-02T23:32:06.613Z,1.30
2023-04-02T23:37:09.686Z,1.40
2023-04-02T23:42:12.222Z,1.20
2023-04-02T23:47:14.807Z,1.50
2023-04-02T23:52:17.313Z,1.10
2023-04-02T23:57:19.872Z,1.30
